createdAt,value
2018-05-01T00:01:56.243Z,99113.80
2018-05-01T00:04:23.618Z,99119.40
2018-05-01T00:06:50.995Z,99128.85
2018-05-01T00:09:18.424Z,99113.75
2018-05-01T00:11:45.783Z,99125.37
2018-05-01T00:14:13.154Z,99130.10
2018-05-01T00:16:40.531Z,99134.70
2018-05-01T00:19:07.911Z,99130.30
2018-05-01T00:21:35.283Z,99132.25
2018-05-01T00:24:02.675Z,99136.91
2018-05-01T00:26:30.183Z,99129.70
2018-05-01T00:28:57.552Z,99138.30
2018-05-01T00:31:24.923Z,99137.70
2018-05-01T00:33:52.303Z,99146.38
2018-05-01T00:36:19.679Z,99146.80
2018-05-01T00:38:47.063Z,99148.73
2018-05-01T00:41:14.431Z,99147.84
2018-05-01T00:43:41.799Z,99158.70
2018-05-01T00:46:09.182Z,99151.11
2018-05-01T00:48:36.563Z,99152.84
2018-05-01T00:51:03.935Z,99154.48
2018-05-01T00:53:31.302Z,99161.73
2018-05-01T00:55:58.855Z,99166.31
2018-05-01T00:58:26.222Z,99148.08
2018-05-01T01:00:53.607Z,99163.31
2018-05-01T01:03:21.019Z,99177.77
2018-05-01T01:05:48.662Z,99162.75
2018-05-01T01:08:16.135Z,99164.28
2018-05-01T01:10:43.506Z,99178.73
2018-05-01T01:13:10.880Z,99163.50
2018-05-01T01:15:38.306Z,99173.30
2018-05-01T01:18:05.682Z,99173.13
2018-05-01T01:20:33.219Z,99175.75
2018-05-01T01:23:00.598Z,99175.91
2018-05-01T01:25:27.974Z,99177.98
2018-05-01T01:27:55.344Z,99185.45
2018-05-01T01:30:22.723Z,99187.08
2018-05-01T01:32:52.929Z,99189.25
2018-05-01T01:35:19.781Z,99192.92
2018-05-01T01:37:46.614Z,99189.80
2018-05-01T01:40:13.472Z,99191.61
2018-05-01T01:42:40.303Z,99202.14
2018-05-01T01:45:07.150Z,99205.63
2018-05-01T01:47:33.998Z,99219.16
2018-05-01T01:50:00.847Z,99219.81
2018-05-01T01:52:27.720Z,99219.19
2018-05-01T01:54:54.558Z,99215.87
2018-05-01T01:57:21.387Z,99224.14
2018-05-01T01:59:48.235Z,99224.41
2018-05-01T02:02:15.083Z,99242.36
2018-05-01T02:04:41.922Z,99229.66
2018-05-01T02:07:08.763Z,99228.18
2018-05-01T02:09:35.611Z,99235.02
2018-05-01T02:12:02.469Z,99239.97
2018-05-01T02:14:29.291Z,99237.22
2018-05-01T02:16:56.131Z,99236.61
2018-05-01T02:19:22.987Z,99242.72
2018-05-01T02:21:49.823Z,99244.90
2018-05-01T02:24:16.654Z,99250.95
2018-05-01T02:26:43.487Z,99249.83
2018-05-01T02:29:10.378Z,99259.38
2018-05-01T02:31:37.227Z,99258.85
2018-05-01T02:34:04.059Z,99261.35
2018-05-01T02:36:30.899Z,99270.66
2018-05-01T02:38:57.754Z,99264.30
2018-05-01T02:41:24.586Z,99275.63
2018-05-01T02:43:51.419Z,99272.05
2018-05-01T02:46:18.263Z,99263.70
2018-05-01T02:48:45.530Z,99275.34
2018-05-01T02:51:12.370Z,99279.19
2018-05-01T02:53:39.198Z,99280.92
2018-05-01T02:56:06.035Z,99282.05
2018-05-01T02:58:32.876Z,99283.14
2018-05-01T03:00:59.731Z,99283.78
2018-05-01T03:03:26.780Z,99282.41
2018-05-01T03:05:53.609Z,99294.16
2018-05-01T03:08:20.446Z,99293.38
2018-05-01T03:10:47.447Z,99292.26
2018-05-01T03:13:14.278Z,99295.30
2018-05-01T03:15:41.111Z,99301.19
2018-05-01T03:18:07.961Z,99299.28
2018-05-01T03:20:34.802Z,99296.97
2018-05-01T03:23:01.654Z,99305.53
2018-05-01T03:25:28.556Z,99303.53
2018-05-01T03:27:55.343Z,99295.42
2018-05-01T03:30:22.179Z,99319.13
2018-05-01T03:32:49.027Z,99317.41
2018-05-01T03:35:15.866Z,99320.98
2018-05-01T03:37:42.703Z,99321.28
2018-05-01T03:40:09.552Z,99315.23
2018-05-01T03:42:36.390Z,99325.36
2018-05-01T03:45:03.261Z,99324.40
2018-05-01T03:47:30.087Z,99330.08
2018-05-01T03:49:56.931Z,99329.14
2018-05-01T03:52:23.794Z,99329.14
2018-05-01T03:54:50.642Z,99337.39
2018-05-01T03:57:17.469Z,99335.00
2018-05-01T03:59:44.318Z,99345.14
2018-05-01T04:02:11.169Z,99345.23
2018-05-01T04:04:38.002Z,99341.38
2018-05-01T04:07:04.862Z,99350.00
2018-05-01T04:09:31.688Z,99346.02
2018-05-01T04:11:58.531Z,99354.94
2018-05-01T04:14:25.456Z,99363.28
2018-05-01T04:16:52.303Z,99364.00
2018-05-01T04:19:19.151Z,99367.64
2018-05-01T04:21:46.014Z,99373.02
2018-05-01T04:24:12.854Z,99369.53
2018-05-01T04:26:39.717Z,99384.19
2018-05-01T04:29:06.583Z,99378.72
2018-05-01T04:31:33.423Z,99397.36
2018-05-01T04:34:00.272Z,99388.69
2018-05-01T04:36:27.133Z,99401.07
2018-05-01T04:38:54.028Z,99405.36
2018-05-01T04:41:20.871Z,99407.12
2018-05-01T04:43:47.728Z,99411.55
2018-05-01T04:46:14.562Z,99411.27
2018-05-01T04:48:41.687Z,99423.88
2018-05-01T04:51:08.527Z,99423.28
2018-05-01T04:53:35.419Z,99431.86
2018-05-01T04:56:02.251Z,99438.28
2018-05-01T04:58:29.207Z,99439.09
2018-05-01T05:00:55.950Z,99447.73
2018-05-01T05:03:22.812Z,99442.92
2018-05-01T05:05:49.652Z,99441.19
2018-05-01T05:08:16.503Z,99453.66
2018-05-01T05:10:43.347Z,99462.33
2018-05-01T05:13:10.206Z,99471.02
2018-05-01T05:15:37.122Z,99483.47
2018-05-01T05:18:03.899Z,99474.47
2018-05-01T05:20:30.746Z,99490.67
2018-05-01T05:22:57.600Z,99493.01
2018-05-01T05:25:24.692Z,99493.72
2018-05-01T05:27:51.539Z,99500.16
2018-05-01T05:30:18.379Z,99490.76
2018-05-01T05:32:45.418Z,99500.11
2018-05-01T05:35:12.266Z,99497.69
2018-05-01T05:37:39.130Z,99499.33
2018-05-01T05:40:05.976Z,99509.53
2018-05-01T05:42:32.859Z,99500.23
2018-05-01T05:44:59.699Z,99512.16
2018-05-01T05:47:26.539Z,99517.56
2018-05-01T05:49:53.390Z,99517.75
2018-05-01T05:52:20.289Z,99522.25
2018-05-01T05:54:47.125Z,99531.66
2018-05-01T05:57:13.963Z,99529.13
2018-05-01T05:59:40.815Z,99544.38
2018-05-01T06:02:07.652Z,99538.73
2018-05-01T06:04:34.723Z,99546.52
2018-05-01T06:07:01.559Z,99549.22
2018-05-01T06:09:28.405Z,99551.48
2018-05-01T06:11:55.234Z,99554.61
2018-05-01T06:14:22.103Z,99552.02
2018-05-01T06:16:48.963Z,99561.06
2018-05-01T06:19:16.305Z,99575.22
2018-05-01T06:21:43.994Z,99557.89
2018-05-01T06:24:10.847Z,99573.61
2018-05-01T06:26:38.047Z,99567.48
2018-05-01T06:29:04.943Z,99570.88
2018-05-01T06:31:31.775Z,99572.11
2018-05-01T06:33:58.678Z,99570.94
2018-05-01T06:36:25.545Z,99579.84
2018-05-01T06:38:52.431Z,99581.11
2018-05-01T06:41:19.260Z,99590.78
2018-05-01T06:43:46.137Z,99593.98
2018-05-01T06:46:13.006Z,99602.20
2018-05-01T06:48:39.936Z,99608.36
2018-05-01T06:51:06.866Z,99606.17
2018-05-01T06:53:33.691Z,99602.91
2018-05-01T06:56:00.571Z,99614.47
2018-05-01T06:58:27.392Z,99619.69
2018-05-01T07:00:54.255Z,99621.55
2018-05-01T07:03:21.099Z,99630.11
2018-05-01T07:05:47.950Z,99634.47
2018-05-01T07:08:14.792Z,99633.69
2018-05-01T07:10:41.648Z,99635.73
2018-05-01T07:13:08.487Z,99628.20
2018-05-01T07:15:35.331Z,99633.47
2018-05-01T07:18:02.178Z,99617.06
2018-05-01T07:20:29.043Z,99618.05
2018-05-01T07:22:55.904Z,99644.09
2018-05-01T07:25:22.751Z,99627.09
2018-05-01T07:27:49.599Z,99632.56
2018-05-01T07:30:16.447Z,99634.33
2018-05-01T07:32:43.305Z,99634.57
2018-05-01T07:35:10.151Z,99652.45
2018-05-01T07:37:37.071Z,99638.84
2018-05-01T07:40:03.947Z,99656.32
2018-05-01T07:42:30.787Z,99662.06
2018-05-01T07:44:57.642Z,99650.24
2018-05-01T07:47:24.502Z,99651.42
2018-05-01T07:49:51.377Z,99672.06
2018-05-01T07:52:18.202Z,99675.49
2018-05-01T07:54:45.059Z,99670.32
2018-05-01T07:57:11.898Z,99676.58
2018-05-01T07:59:38.750Z,99673.97
2018-05-01T08:02:05.583Z,99675.16
2018-05-01T08:04:32.433Z,99672.18
2018-05-01T08:06:59.319Z,99669.11
2018-05-01T08:09:26.107Z,99680.10
2018-05-01T08:11:52.964Z,99686.39
2018-05-01T08:14:19.810Z,99688.94
2018-05-01T08:16:46.656Z,99692.93
2018-05-01T08:19:13.522Z,99686.98
2018-05-01T08:21:40.386Z,99690.33
2018-05-01T08:24:07.222Z,99686.39
2018-05-01T08:26:34.082Z,99692.52
2018-05-01T08:29:00.919Z,99698.11
2018-05-01T08:31:27.798Z,99698.39
2018-05-01T08:33:54.655Z,99699.32
2018-05-01T08:36:21.496Z,99706.77
2018-05-01T08:38:48.373Z,99711.41
2018-05-01T08:41:15.200Z,99714.08
2018-05-01T08:43:42.051Z,99718.11
2018-05-01T08:46:09.023Z,99714.83
2018-05-01T08:48:35.901Z,99726.70
2018-05-01T08:51:02.746Z,99727.98
2018-05-01T08:53:29.594Z,99728.49
2018-05-01T08:55:56.454Z,99728.61
2018-05-01T08:58:23.299Z,99744.16
2018-05-01T09:00:50.150Z,99734.84
2018-05-01T09:03:17.012Z,99744.05
2018-05-01T09:05:43.855Z,99732.36
2018-05-01T09:08:10.695Z,99739.89
2018-05-01T09:10:37.551Z,99745.55
2018-05-01T09:13:04.423Z,99746.19
2018-05-01T09:15:31.345Z,99749.45
2018-05-01T09:17:58.141Z,99742.59
2018-05-01T09:20:24.954Z,99753.11
2018-05-01T09:22:51.799Z,99753.91
2018-05-01T09:25:18.640Z,99755.56
2018-05-01T09:27:45.542Z,99759.47
2018-05-01T09:30:12.387Z,99756.09
2018-05-01T09:32:39.242Z,99761.45
2018-05-01T09:35:06.087Z,99756.86
2018-05-01T09:37:32.926Z,99759.56
2018-05-01T09:39:59.813Z,99759.08
2018-05-01T09:42:26.648Z,99766.89
2018-05-01T09:44:53.522Z,99781.48
2018-05-01T09:47:20.402Z,99785.44
2018-05-01T09:49:47.235Z,99787.17
2018-05-01T09:52:14.151Z,99775.97
2018-05-01T09:54:41.468Z,99788.41
2018-05-01T09:57:08.886Z,99779.85
2018-05-01T09:59:36.263Z,99783.03
2018-05-01T10:02:03.703Z,99774.66
2018-05-01T10:04:31.090Z,99785.30
2018-05-01T10:06:58.485Z,99781.12
2018-05-01T10:09:25.907Z,99782.99
2018-05-01T10:11:53.294Z,99785.73
2018-05-01T10:14:20.696Z,99793.78
2018-05-01T10:16:48.096Z,99791.22
2018-05-01T10:19:15.483Z,99796.98
2018-05-01T10:21:42.875Z,99795.92
2018-05-01T10:24:10.247Z,99800.51
2018-05-01T10:26:37.642Z,99798.80
2018-05-01T10:29:05.037Z,99803.08
2018-05-01T10:31:32.419Z,99798.48
2018-05-01T10:33:59.805Z,99807.56
2018-05-01T10:36:27.218Z,99808.44
2018-05-01T10:38:54.708Z,99812.38
2018-05-01T10:41:22.007Z,99815.11
2018-05-01T10:43:49.390Z,99811.34
2018-05-01T10:46:16.785Z,99816.25
2018-05-01T10:48:44.169Z,99815.38
2018-05-01T10:51:11.571Z,99812.48
2018-05-01T10:53:39.003Z,99809.91
2018-05-01T10:56:06.403Z,99813.77
2018-05-01T10:58:33.815Z,99815.41
2018-05-01T11:01:01.190Z,99828.44
2018-05-01T11:03:28.595Z,99834.05
2018-05-01T11:05:55.993Z,99831.73
2018-05-01T11:08:23.408Z,99827.79
2018-05-01T11:10:50.805Z,99830.48
2018-05-01T11:13:18.263Z,99832.31
2018-05-01T11:15:45.746Z,99829.82
2018-05-01T11:18:13.159Z,99832.45
2018-05-01T11:20:40.578Z,99832.58
2018-05-01T11:23:07.947Z,99832.97
2018-05-01T11:25:35.346Z,99831.97
2018-05-01T11:28:02.725Z,99837.55
2018-05-01T11:30:30.133Z,99833.94
2018-05-01T11:32:57.502Z,99846.09
2018-05-01T11:35:24.890Z,99844.12
2018-05-01T11:37:52.280Z,99833.83
2018-05-01T11:40:19.673Z,99842.80
2018-05-01T11:42:47.069Z,99843.18
2018-05-01T11:45:14.601Z,99829.49
2018-05-01T11:47:42.055Z,99843.15
2018-05-01T11:50:09.442Z,99847.19
2018-05-01T11:52:36.826Z,99849.05
2018-05-01T11:55:04.196Z,99845.59
2018-05-01T11:57:31.588Z,99847.44
2018-05-01T11:59:58.971Z,99851.73
2018-05-01T12:02:26.372Z,99854.00
2018-05-01T12:04:53.765Z,99851.83
2018-05-01T12:07:21.155Z,99853.66
2018-05-01T12:09:48.606Z,99850.67
2018-05-01T12:12:15.946Z,99841.73
2018-05-01T12:14:43.342Z,99848.31
2018-05-01T12:17:10.727Z,99854.12
2018-05-01T12:19:38.135Z,99848.14
2018-05-01T12:22:05.515Z,99855.34
2018-05-01T12:24:32.912Z,99854.55
2018-05-01T12:27:00.315Z,99851.83
2018-05-01T12:29:27.745Z,99846.42
2018-05-01T12:31:55.162Z,99857.70
2018-05-01T12:34:22.556Z,99846.48
2018-05-01T12:36:50.161Z,99848.92
2018-05-01T12:39:17.325Z,99857.51
2018-05-01T12:41:44.714Z,99856.63
2018-05-01T12:44:12.106Z,99853.70
2018-05-01T12:46:39.634Z,99858.00
2018-05-01T12:49:07.020Z,99875.75
2018-05-01T12:51:34.449Z,99867.12
2018-05-01T12:54:01.827Z,99864.25
2018-05-01T12:56:29.226Z,99858.84
2018-05-01T12:58:56.610Z,99851.03
2018-05-01T13:01:23.999Z,99869.41
2018-05-01T13:03:51.399Z,99875.18
2018-05-01T13:06:18.798Z,99876.98
2018-05-01T13:08:46.183Z,99877.88
2018-05-01T13:11:13.608Z,99885.69
2018-05-01T13:13:40.994Z,99881.31
2018-05-01T13:16:08.446Z,99877.05
2018-05-01T13:18:35.863Z,99876.97
2018-05-01T13:21:03.255Z,99880.55
2018-05-01T13:23:30.645Z,99878.44
2018-05-01T13:25:58.027Z,99879.87
2018-05-01T13:28:25.439Z,99889.51
2018-05-01T13:30:52.841Z,99891.69
2018-05-01T13:33:20.247Z,99888.98
2018-05-01T13:35:47.642Z,99890.78
2018-05-01T13:38:15.055Z,99885.23
2018-05-01T13:40:42.434Z,99885.13
2018-05-01T13:43:09.818Z,99890.25
2018-05-01T13:45:37.207Z,99886.00
2018-05-01T13:48:04.602Z,99895.61
2018-05-01T13:50:32.046Z,99901.69
2018-05-01T13:52:59.411Z,99898.38
2018-05-01T13:55:26.870Z,99902.37
2018-05-01T13:57:54.335Z,99898.80
2018-05-01T14:00:21.775Z,99903.36
2018-05-01T14:02:49.226Z,99902.91
2018-05-01T14:05:16.693Z,99900.28
2018-05-01T14:07:44.150Z,99893.09
2018-05-01T14:10:11.615Z,99888.69
2018-05-01T14:12:39.069Z,99894.56
2018-05-01T14:15:06.447Z,99899.49
2018-05-01T14:17:33.842Z,99898.95
2018-05-01T14:20:01.233Z,99894.05
2018-05-01T14:22:28.705Z,99900.11
2018-05-01T14:24:56.090Z,99902.14
2018-05-01T14:27:23.470Z,99904.66
2018-05-01T14:29:50.864Z,99905.98
2018-05-01T14:32:18.247Z,99910.22
2018-05-01T14:34:45.635Z,99915.69
2018-05-01T14:37:13.023Z,99909.52
2018-05-01T14:39:40.403Z,99901.25
2018-05-01T14:42:07.853Z,99900.62
2018-05-01T14:44:35.167Z,99905.66
2018-05-01T14:47:02.555Z,99911.97
2018-05-01T14:49:29.938Z,99908.23
2018-05-01T14:51:57.322Z,99909.03
2018-05-01T14:54:24.712Z,99906.34
2018-05-01T14:56:52.102Z,99902.17
2018-05-01T14:59:19.518Z,99906.98
2018-05-01T15:01:46.976Z,99907.39
2018-05-01T15:04:14.286Z,99910.66
2018-05-01T15:06:41.667Z,99911.94
2018-05-01T15:09:09.054Z,99903.47
2018-05-01T15:11:36.588Z,99905.20
2018-05-01T15:14:04.107Z,99897.16
2018-05-01T15:16:31.611Z,99903.83
2018-05-01T15:18:59.007Z,99902.87
2018-05-01T15:21:26.570Z,99906.20
2018-05-01T15:23:54.108Z,99902.64
2018-05-01T15:26:21.490Z,99899.02
2018-05-01T15:28:48.916Z,99898.53
2018-05-01T15:31:16.447Z,99896.64
2018-05-01T15:33:43.763Z,99897.72
2018-05-01T15:36:11.173Z,99898.39
2018-05-01T15:38:38.604Z,99896.19
2018-05-01T15:41:05.982Z,99902.05
2018-05-01T15:43:33.375Z,99898.27
2018-05-01T15:46:00.755Z,99895.70
2018-05-01T15:48:28.154Z,99900.42
2018-05-01T15:50:55.535Z,99894.53
2018-05-01T15:53:22.915Z,99898.33
2018-05-01T15:55:50.327Z,99903.27
2018-05-01T15:58:17.713Z,99897.66
2018-05-01T16:00:45.110Z,99896.09
2018-05-01T16:03:12.486Z,99905.59
2018-05-01T16:05:39.875Z,99903.42
2018-05-01T16:08:07.251Z,99901.96
2018-05-01T16:10:34.662Z,99899.52
2018-05-01T16:13:02.047Z,99904.80
2018-05-01T16:15:29.431Z,99899.53
2018-05-01T16:17:56.819Z,99891.66
2018-05-01T16:20:24.207Z,99896.95
2018-05-01T16:22:51.595Z,99898.53
2018-05-01T16:25:18.977Z,99893.75
2018-05-01T16:27:46.387Z,99895.42
2018-05-01T16:30:13.767Z,99894.34
2018-05-01T16:32:41.151Z,99893.17
2018-05-01T16:35:08.626Z,99895.94
2018-05-01T16:37:36.010Z,99892.25
2018-05-01T16:40:03.395Z,99886.14
2018-05-01T16:42:30.794Z,99891.45
2018-05-01T16:44:58.174Z,99888.25
2018-05-01T16:47:25.594Z,99893.98
2018-05-01T16:49:52.969Z,99891.45
2018-05-01T16:52:20.351Z,99898.84
2018-05-01T16:54:47.746Z,99899.25
2018-05-01T16:57:15.126Z,99898.32
2018-05-01T16:59:42.515Z,99895.20
2018-05-01T17:02:09.928Z,99899.53
2018-05-01T17:04:37.327Z,99899.72
2018-05-01T17:07:04.708Z,99907.00
2018-05-01T17:09:32.090Z,99903.89
2018-05-01T17:11:59.480Z,99902.31
2018-05-01T17:14:26.886Z,99903.47
2018-05-01T17:16:54.266Z,99905.72
2018-05-01T17:19:21.655Z,99905.46
2018-05-01T17:21:49.037Z,99909.86
2018-05-01T17:24:16.419Z,99915.24
2018-05-01T17:26:43.807Z,99910.42
2018-05-01T17:29:11.279Z,99915.38
2018-05-01T17:31:38.635Z,99912.95
2018-05-01T17:34:06.015Z,99909.23
2018-05-01T17:36:33.416Z,99912.41
2018-05-01T17:39:00.800Z,99908.90
2018-05-01T17:41:28.207Z,99908.28
2018-05-01T17:43:55.583Z,99906.09
2018-05-01T17:46:22.969Z,99913.02
2018-05-01T17:48:50.452Z,99915.05
2018-05-01T17:51:17.756Z,99914.08
2018-05-01T17:53:45.167Z,99919.13
2018-05-01T17:56:12.589Z,99915.05
2018-05-01T17:58:39.987Z,99914.12
2018-05-01T18:01:07.386Z,99920.75
2018-05-01T18:03:34.771Z,99918.84
2018-05-01T18:06:02.151Z,99919.70
2018-05-01T18:08:29.535Z,99915.16
2018-05-01T18:10:56.978Z,99921.12
2018-05-01T18:13:24.360Z,99923.81
2018-05-01T18:15:52.127Z,99921.67
2018-05-01T18:18:19.530Z,99924.77
2018-05-01T18:20:46.920Z,99919.19
2018-05-01T18:23:14.298Z,99924.70
2018-05-01T18:25:41.687Z,99926.59
2018-05-01T18:28:09.082Z,99926.37
2018-05-01T18:30:36.509Z,99931.95
2018-05-01T18:33:03.850Z,99930.57
2018-05-01T18:35:31.238Z,99928.44
2018-05-01T18:37:58.626Z,99924.89
2018-05-01T18:40:26.074Z,99925.24
2018-05-01T18:42:53.463Z,99929.66
2018-05-01T18:45:20.922Z,99930.36
2018-05-01T18:47:48.392Z,99930.30
2018-05-01T18:50:15.792Z,99931.99
2018-05-01T18:52:43.204Z,99928.91
2018-05-01T18:55:10.580Z,99926.52
2018-05-01T18:57:38.011Z,99920.98
2018-05-01T19:00:05.398Z,99921.16
2018-05-01T19:02:32.791Z,99919.19
2018-05-01T19:05:00.182Z,99924.55
2018-05-01T19:07:27.567Z,99931.63
2018-05-01T19:09:54.963Z,99934.78
2018-05-01T19:12:22.358Z,99935.28
2018-05-01T19:14:49.767Z,99936.56
2018-05-01T19:17:17.149Z,99937.67
2018-05-01T19:19:44.599Z,99944.12
2018-05-01T19:22:11.982Z,99946.31
2018-05-01T19:24:39.379Z,99953.08
2018-05-01T19:27:06.858Z,99955.33
2018-05-01T19:29:34.261Z,99959.03
2018-05-01T19:32:01.657Z,99961.69
2018-05-01T19:34:29.031Z,99969.17
2018-05-01T19:36:56.411Z,99958.75
2018-05-01T19:39:23.799Z,99965.46
2018-05-01T19:41:51.207Z,99964.23
2018-05-01T19:44:18.596Z,99965.85
2018-05-01T19:46:45.979Z,99967.96
2018-05-01T19:49:13.390Z,99965.02
2018-05-01T19:51:40.836Z,99968.66
2018-05-01T19:54:08.227Z,99966.25
2018-05-01T19:56:35.694Z,99971.59
2018-05-01T19:59:03.066Z,99970.19
2018-05-01T20:01:30.463Z,99969.40
2018-05-01T20:03:57.847Z,99967.60
2018-05-01T20:06:25.575Z,99969.25
2018-05-01T20:08:52.974Z,99965.59
2018-05-01T20:11:20.354Z,99970.61
2018-05-01T20:13:47.816Z,99979.94
2018-05-01T20:16:15.187Z,99982.84
2018-05-01T20:18:42.578Z,99973.31
2018-05-01T20:21:09.958Z,99971.92
2018-05-01T20:23:37.351Z,99972.72
2018-05-01T20:26:04.827Z,99968.24
2018-05-01T20:28:32.207Z,99971.31
2018-05-01T20:30:59.591Z,99973.98
2018-05-01T20:33:26.971Z,99971.22
2018-05-01T20:35:54.351Z,99976.44
2018-05-01T20:38:21.739Z,99978.61
2018-05-01T20:40:49.143Z,99987.72
2018-05-01T20:43:16.520Z,99987.61
2018-05-01T20:45:43.900Z,99993.23
2018-05-01T20:48:11.283Z,99999.78
2018-05-01T20:50:38.679Z,100001.53
2018-05-01T20:53:06.068Z,100000.20
2018-05-01T20:55:33.456Z,100005.84
2018-05-01T20:58:01.162Z,100006.45
2018-05-01T21:00:28.543Z,100001.97
2018-05-01T21:02:55.923Z,100004.44
2018-05-01T21:05:23.315Z,100000.76
2018-05-01T21:07:50.699Z,100007.00
2018-05-01T21:10:18.094Z,100005.86
2018-05-01T21:12:45.475Z,100002.59
2018-05-01T21:15:12.878Z,99999.22
2018-05-01T21:17:40.251Z,99995.95
2018-05-01T21:20:07.635Z,99993.00
2018-05-01T21:22:35.023Z,100004.24
2018-05-01T21:25:02.406Z,99998.12
2018-05-01T21:27:29.787Z,99993.23
2018-05-01T21:29:57.162Z,99995.89
2018-05-01T21:32:24.554Z,99999.88
2018-05-01T21:34:51.999Z,99996.91
2018-05-01T21:37:19.377Z,99993.65
2018-05-01T21:39:46.759Z,99994.75
2018-05-01T21:42:14.193Z,99991.08
2018-05-01T21:44:41.558Z,99991.60
2018-05-01T21:47:08.943Z,99994.64
2018-05-01T21:49:36.338Z,99992.52
2018-05-01T21:52:03.715Z,99996.31
2018-05-01T21:54:31.103Z,99998.33
2018-05-01T21:56:58.505Z,100001.41
2018-05-01T21:59:25.955Z,99997.83
2018-05-01T22:01:53.368Z,99996.01
2018-05-01T22:04:20.747Z,99999.99
2018-05-01T22:06:48.154Z,100001.32
2018-05-01T22:09:15.558Z,100009.59
2018-05-01T22:11:42.945Z,100004.17
2018-05-01T22:14:10.331Z,100007.73
2018-05-01T22:16:37.711Z,100016.32
2018-05-01T22:19:05.406Z,100009.67
2018-05-01T22:21:32.792Z,100012.75
2018-05-01T22:24:00.178Z,100007.84
2018-05-01T22:26:27.558Z,100007.55
2018-05-01T22:28:55.043Z,100008.68
2018-05-01T22:31:22.327Z,100004.39
2018-05-01T22:33:49.706Z,99998.66
2018-05-01T22:36:17.107Z,100004.28
2018-05-01T22:38:44.490Z,100000.28
2018-05-01T22:41:11.875Z,99995.89
2018-05-01T22:43:39.266Z,99998.43
2018-05-01T22:46:06.647Z,100002.52
2018-05-01T22:48:34.036Z,100010.80
2018-05-01T22:51:01.419Z,100012.84
2018-05-01T22:53:28.813Z,100011.73
2018-05-01T22:55:56.215Z,100010.17
2018-05-01T22:58:23.595Z,100008.12
2018-05-01T23:00:51.000Z,100002.11
2018-05-01T23:03:18.382Z,100001.58
2018-05-01T23:05:45.763Z,100002.00
2018-05-01T23:08:13.150Z,100007.81
2018-05-01T23:10:40.543Z,100007.80
2018-05-01T23:13:07.926Z,100011.48
2018-05-01T23:15:35.310Z,100011.09
2018-05-01T23:18:02.702Z,100010.45
2018-05-01T23:20:30.115Z,100008.21
2018-05-01T23:22:57.502Z,100008.32
2018-05-01T23:25:24.889Z,100003.50
2018-05-01T23:27:52.295Z,99996.67
2018-05-01T23:30:19.679Z,100000.66
2018-05-01T23:32:47.054Z,99997.39
2018-05-01T23:35:14.454Z,99990.02
2018-05-01T23:37:41.827Z,99995.34
2018-05-01T23:40:09.211Z,99992.87
2018-05-01T23:42:36.603Z,99988.81
2018-05-01T23:45:04.067Z,99993.80
2018-05-01T23:47:31.455Z,99997.97
2018-05-01T23:49:58.834Z,99988.58
2018-05-01T23:52:26.222Z,99994.09
2018-05-01T23:54:53.620Z,99991.72
2018-05-01T23:57:20.999Z,99992.83
2018-05-01T23:59:48.390Z,99987.81
